Time;durP1;ratioP1;P1;durP2;ratioP2;P2;SDS_P1;SDS_P2;PMS_P1;PMS_P2;Temp;Humidity;BMP_temperature;BMP_pressure;BME280_temperature;BME280_humidity;BME280_pressure;Samples;Min_cycle;Max_cycle;Signal;HPM_P1;HPM_P2
2022/09/24 00:02:23;;;;;;;3.05;2.88;;;;;;;;;;6344083;27;20023;-79
2022/09/24 00:05:23;;;;;;;5.23;4.77;;;;;;;;;;6365354;27;20027;-79
2022/09/24 00:08:23;;;;;;;7.37;2.70;;;;;;;;;;6365532;27;20035;-79
2022/09/24 00:11:25;;;;;;;5.63;3.67;;;;;;;;;;6348369;27;20034;-79
2022/09/24 00:14:25;;;;;;;4.22;3.38;;;;;;;;;;6371528;27;20259;-79
2022/09/24 00:17:25;;;;;;;5.30;4.90;;;;;;;;;;6355836;27;20511;-78
2022/09/24 00:20:28;;;;;;;2.50;2.40;;;;;;;;;;6342284;27;20014;-79
2022/09/24 00:23:28;;;;;;;2.30;2.20;;;;;;;;;;6337819;27;20086;-79
2022/09/24 00:29:47;;;;;;;3.72;2.25;;;;;;;;;;6362570;27;20237;-79
2022/09/24 00:32:47;;;;;;;1.77;1.53;;;;;;;;;;6364505;27;20049;-79
2022/09/24 00:35:47;;;;;;;3.72;3.47;;;;;;;;;;6332739;27;20368;-78
2022/09/24 00:38:51;;;;;;;4.38;1.75;;;;;;;;;;6359548;27;20335;-79
2022/09/24 00:41:51;;;;;;;3.20;3.05;;;;;;;;;;6337450;27;20220;-79
2022/09/24 00:44:53;;;;;;;3.83;3.53;;;;;;;;;;6343077;27;20386;-78
2022/09/24 00:47:53;;;;;;;1.77;1.65;;;;;;;;;;6340929;27;20268;-78
2022/09/24 00:50:54;;;;;;;4.17;3.00;;;;;;;;;;6357517;27;20194;-78
2022/09/24 00:53:57;;;;;;;2.95;2.85;;;;;;;;;;6338674;27;20047;-78
2022/09/24 00:56:58;;;;;;;1.92;1.83;;;;;;;;;;6354165;27;20489;-78
2022/09/24 00:59:59;;;;;;;4.82;4.47;;;;;;;;;;6342133;28;20360;-79
2022/09/24 01:03:01;;;;;;;5.72;3.83;;;;;;;;;;6355287;27;20475;-79
2022/09/24 01:06:01;;;;;;;2.05;1.90;;;;;;;;;;6342736;27;20015;-79
2022/09/24 01:09:02;;;;;;;4.50;4.13;;;;;;;;;;6365762;27;20575;-78
2022/09/24 01:12:08;;;;;;;4.03;3.03;;;;;;;;;;6359657;27;20031;-79
2022/09/24 01:15:16;;;;;;;3.35;3.15;;;;;;;;;;6359074;27;20450;-78
2022/09/24 01:18:36;;;;;;;2.47;2.38;;;;;;;;;;6364386;27;20403;-78
2022/09/24 01:21:48;;;;;;;3.92;3.47;;;;;;;;;;6339613;27;20028;-78
2022/09/24 01:24:54;;;;;;;2.00;1.90;;;;;;;;;;6355025;27;20034;-79
2022/09/24 01:28:11;;;;;;;5.38;5.07;;;;;;;;;;6363394;27;20141;-79
2022/09/24 01:31:28;;;;;;;4.35;4.05;;;;;;;;;;6356327;27;20505;-79
2022/09/24 01:34:37;;;;;;;3.13;2.80;;;;;;;;;;6348657;27;20054;-78
2022/09/24 01:37:40;;;;;;;4.43;3.85;;;;;;;;;;6359731;27;20047;-78
2022/09/24 01:40:41;;;;;;;2.67;2.55;;;;;;;;;;6345548;27;20450;-78
2022/09/24 01:43:41;;;;;;;2.80;2.60;;;;;;;;;;6361087;27;20031;-78
2022/09/24 01:46:42;;;;;;;3.50;3.30;;;;;;;;;;6338960;28;20259;-79
2022/09/24 01:49:43;;;;;;;1.75;1.65;;;;;;;;;;6363468;27;20047;-79
2022/09/24 01:52:47;;;;;;;2.00;1.90;;;;;;;;;;6351250;27;20581;-78
2022/09/24 01:55:49;;;;;;;2.50;2.40;;;;;;;;;;6335860;27;20060;-79
2022/09/24 01:59:04;;;;;;;9.52;5.13;;;;;;;;;;6338994;28;20030;-79
2022/09/24 02:02:27;;;;;;;10.55;6.63;;;;;;;;;;6349195;28;20098;-79
2022/09/24 02:05:33;;;;;;;3.83;3.45;;;;;;;;;;6340628;28;20012;-78
2022/09/24 02:08:43;;;;;;;5.60;4.60;;;;;;;;;;6333278;28;20027;-79
2022/09/24 02:11:52;;;;;;;2.50;2.38;;;;;;;;;;6328576;28;20027;-79
2022/09/24 02:14:54;;;;;;;5.38;4.90;;;;;;;;;;6348489;28;20351;-78
2022/09/24 02:17:54;;;;;;;;;;;;;;;;;;6336691;28;20043;-78
2022/09/24 02:20:55;;;;;;;4.18;2.75;;;;;;;;;;6351729;28;19956;-78
2022/09/24 02:23:58;;;;;;;3.87;3.57;;;;;;;;;;6361417;28;20089;-79
2022/09/24 02:26:59;;;;;;;7.32;6.43;;;;;;;;;;6329025;28;20016;-79
2022/09/24 02:29:59;;;;;;;6.35;5.90;;;;;;;;;;6347059;28;20022;-78
2022/09/24 02:33:00;;;;;;;1.37;1.27;;;;;;;;;;6342747;28;20019;-79
2022/09/24 02:36:00;;;;;;;0.60;0.60;;;;;;;;;;6346454;28;20012;-78
2022/09/24 02:39:00;;;;;;;10.57;2.93;;;;;;;;;;6339439;28;20023;-79
2022/09/24 02:42:03;;;;;;;4.90;3.87;;;;;;;;;;6339338;28;20030;-79
2022/09/24 02:45:04;;;;;;;4.88;3.95;;;;;;;;;;6353155;28;20108;-78
2022/09/24 02:48:04;;;;;;;2.72;2.63;;;;;;;;;;6360413;28;20027;-79
2022/09/24 02:51:04;;;;;;;2.25;2.15;;;;;;;;;;6360309;28;20067;-79
2022/09/24 02:54:05;;;;;;;2.13;1.70;;;;;;;;;;6359202;28;20272;-79
2022/09/24 02:57:05;;;;;;;1.40;1.40;;;;;;;;;;6362872;28;20020;-79
2022/09/24 03:00:05;;;;;;;0.90;0.90;;;;;;;;;;6342850;28;20023;-79
2022/09/24 03:03:06;;;;;;;2.90;2.67;;;;;;;;;;6337813;28;20543;-79
2022/09/24 03:06:06;;;;;;;2.80;2.70;;;;;;;;;;6364529;28;20022;-78
2022/09/24 03:09:06;;;;;;;2.53;2.28;;;;;;;;;;6359206;28;20049;-78
2022/09/24 03:12:07;;;;;;;1.83;1.77;;;;;;;;;;6352662;28;20016;-78
2022/09/24 03:15:07;;;;;;;2.97;2.77;;;;;;;;;;6358377;27;20104;-78
2022/09/24 03:18:07;;;;;;;2.05;1.95;;;;;;;;;;6350167;27;20015;-79
2022/09/24 03:21:09;;;;;;;9.23;8.33;;;;;;;;;;6363792;27;20012;-76
2022/09/24 03:24:10;;;;;;;1.90;1.80;;;;;;;;;;6360975;27;20334;-78
2022/09/24 03:27:10;;;;;;;1.20;1.20;;;;;;;;;;6349328;27;20471;-78
2022/09/24 03:33:32;;;;;;;1.85;1.60;;;;;;;;;;6370507;27;20019;-78
2022/09/24 03:36:32;;;;;;;;;;;;;;;;;;6364123;27;20011;-78
2022/09/24 03:39:32;;;;;;;1.50;1.50;;;;;;;;;;6346300;27;19903;-78
2022/09/24 03:42:33;;;;;;;2.90;1.38;;;;;;;;;;6353625;27;20023;-78
2022/09/24 03:45:33;;;;;;;4.03;3.80;;;;;;;;;;6339947;27;20019;-78
2022/09/24 03:48:34;;;;;;;1.90;1.80;;;;;;;;;;6350480;27;20085;-78
2022/09/24 03:51:34;;;;;;;3.87;2.57;;;;;;;;;;6354516;27;20070;-77
2022/09/24 03:54:35;;;;;;;2.17;1.67;;;;;;;;;;6351715;27;20256;-78
2022/09/24 03:57:35;;;;;;;2.40;2.20;;;;;;;;;;6339601;27;20299;-78
2022/09/24 04:00:35;;;;;;;0.57;0.57;;;;;;;;;;6339370;27;20045;-79
2022/09/24 04:03:35;;;;;;;3.25;3.05;;;;;;;;;;6354816;27;20027;-78
2022/09/24 04:06:36;;;;;;;1.23;1.23;;;;;;;;;;6350321;27;20352;-78
2022/09/24 04:09:36;;;;;;;1.93;1.83;;;;;;;;;;6339281;27;20027;-77
2022/09/24 04:12:36;;;;;;;1.02;1.02;;;;;;;;;;6352506;27;20268;-77
2022/09/24 04:15:36;;;;;;;2.23;2.07;;;;;;;;;;6357937;27;20459;-78
2022/09/24 04:18:38;;;;;;;0.67;0.67;;;;;;;;;;6359679;27;20015;-77
2022/09/24 04:21:38;;;;;;;4.07;3.70;;;;;;;;;;6363540;27;20030;-76
2022/09/24 04:24:39;;;;;;;1.88;1.77;;;;;;;;;;6347312;27;20474;-77
2022/09/24 04:27:40;;;;;;;2.92;2.75;;;;;;;;;;6348865;27;20256;-77
2022/09/24 04:30:40;;;;;;;3.17;2.97;;;;;;;;;;6353614;27;20068;-77
2022/09/24 04:33:40;;;;;;;1.40;1.33;;;;;;;;;;6343094;27;20015;-77
2022/09/24 04:36:40;;;;;;;1.13;1.13;;;;;;;;;;6357049;27;20031;-76
2022/09/24 04:39:41;;;;;;;1.73;1.70;;;;;;;;;;6356602;27;20049;-76
2022/09/24 04:42:42;;;;;;;0.52;0.52;;;;;;;;;;6355700;27;20302;-76
2022/09/24 04:45:43;;;;;;;8.82;4.30;;;;;;;;;;6358488;27;20027;-77
2022/09/24 04:48:44;;;;;;;1.80;1.70;;;;;;;;;;6332576;27;20030;-77
2022/09/24 04:51:44;;;;;;;3.23;3.03;;;;;;;;;;6368117;27;20464;-76
2022/09/24 04:54:46;;;;;;;1.58;1.48;;;;;;;;;;6345792;27;20031;-76
2022/09/24 04:57:46;;;;;;;;;;;;;;;;;;6348223;27;20015;-76
2022/09/24 05:00:46;;;;;;;1.63;1.63;;;;;;;;;;6360484;27;19908;-78
2022/09/24 05:03:46;;;;;;;2.47;2.35;;;;;;;;;;6345451;27;20023;-78
2022/09/24 05:06:47;;;;;;;2.67;2.55;;;;;;;;;;6350583;27;20019;-78
2022/09/24 05:09:47;;;;;;;3.43;2.10;;;;;;;;;;6342783;27;20015;-78
2022/09/24 05:12:47;;;;;;;6.23;2.43;;;;;;;;;;6343221;27;20023;-78
2022/09/24 05:15:47;;;;;;;2.40;2.30;;;;;;;;;;6363676;27;20344;-78
2022/09/24 05:18:48;;;;;;;1.50;1.48;;;;;;;;;;6340184;27;20015;-77
2022/09/24 05:21:48;;;;;;;1.23;1.23;;;;;;;;;;6355985;27;20102;-77
2022/09/24 05:24:48;;;;;;;2.30;2.20;;;;;;;;;;6355719;27;20015;-77
2022/09/24 05:27:53;;;;;;;3.25;2.40;;;;;;;;;;6341277;27;20468;-77
2022/09/24 05:30:56;;;;;;;3.95;3.60;;;;;;;;;;6354199;27;20019;-77
2022/09/24 05:33:56;;;;;;;2.35;2.25;;;;;;;;;;6341359;27;20038;-77
2022/09/24 05:36:57;;;;;;;3.35;3.10;;;;;;;;;;6362084;27;20039;-77
2022/09/24 05:40:46;;;;;;;4.40;4.13;;;;;;;;;;6343386;27;20280;-78
2022/09/24 05:43:20;;;;;;;6.15;4.38;;;;;;;;;;6359253;27;20035;-78
2022/09/24 05:46:20;;;;;;;4.18;2.72;;;;;;;;;;6364846;27;20056;-78
2022/09/24 05:49:21;;;;;;;4.40;3.23;;;;;;;;;;6343182;27;20031;-75
2022/09/24 05:52:21;;;;;;;3.97;3.67;;;;;;;;;;6365971;27;20116;-75
2022/09/24 05:55:21;;;;;;;3.42;3.15;;;;;;;;;;6366251;27;20031;-75
2022/09/24 05:58:21;;;;;;;4.67;2.23;;;;;;;;;;6344066;27;20019;-75
2022/09/24 06:01:23;;;;;;;4.93;4.20;;;;;;;;;;6361961;28;20476;-76
2022/09/24 06:04:23;;;;;;;8.05;3.97;;;;;;;;;;6363003;28;20500;-77
2022/09/24 06:07:23;;;;;;;2.05;1.95;;;;;;;;;;6342009;28;20023;-77
2022/09/24 06:10:25;;;;;;;10.07;5.30;;;;;;;;;;6345653;28;20031;-78
2022/09/24 06:13:25;;;;;;;9.30;5.40;;;;;;;;;;6361935;28;20023;-77
2022/09/24 06:16:25;;;;;;;3.83;3.13;;;;;;;;;;6342653;28;20210;-77
2022/09/24 06:19:25;;;;;;;4.20;2.25;;;;;;;;;;6339024;28;20019;-77
2022/09/24 06:22:26;;;;;;;9.87;3.53;;;;;;;;;;6337397;28;20387;-76
2022/09/24 06:25:27;;;;;;;0.87;0.87;;;;;;;;;;6349894;28;20116;-77
2022/09/24 06:28:27;;;;;;;6.53;2.03;;;;;;;;;;6367293;28;20027;-77
2022/09/24 06:31:28;;;;;;;5.23;4.17;;;;;;;;;;6362315;28;20015;-75
2022/09/24 06:34:28;;;;;;;3.33;2.88;;;;;;;;;;6358469;28;20118;-76
2022/09/24 06:37:28;;;;;;;8.90;4.93;;;;;;;;;;6342163;28;20012;-76
2022/09/24 06:40:28;;;;;;;0.82;0.82;;;;;;;;;;6344172;28;20111;-76
2022/09/24 06:43:29;;;;;;;3.92;3.38;;;;;;;;;;6343581;28;20023;-76
2022/09/24 06:46:29;;;;;;;3.93;3.57;;;;;;;;;;6343001;28;20055;-76
2022/09/24 06:49:31;;;;;;;1.37;1.37;;;;;;;;;;6344192;27;20034;-75
2022/09/24 06:52:31;;;;;;;2.38;2.20;;;;;;;;;;6371345;27;20039;-76
2022/09/24 06:55:32;;;;;;;3.90;3.42;;;;;;;;;;6367120;27;20030;-76
2022/09/24 06:58:32;;;;;;;7.67;5.47;;;;;;;;;;6349721;27;20470;-76
2022/09/24 07:01:33;;;;;;;0.57;0.57;;;;;;;;;;6349754;27;20118;-76
2022/09/24 07:04:33;;;;;;;3.53;3.30;;;;;;;;;;6347164;27;20119;-76
2022/09/24 07:07:33;;;;;;;1.58;1.58;;;;;;;;;;6345161;27;20034;-77
2022/09/24 07:10:34;;;;;;;4.83;2.43;;;;;;;;;;6347143;27;20530;-77
2022/09/24 07:13:34;;;;;;;7.13;2.63;;;;;;;;;;6365747;27;20023;-77
2022/09/24 07:16:34;;;;;;;2.00;1.90;;;;;;;;;;6344401;27;20068;-78
2022/09/24 07:19:34;;;;;;;12.60;4.20;;;;;;;;;;6348131;27;20019;-78
2022/09/24 07:22:39;;;;;;;8.23;2.50;;;;;;;;;;6348540;27;20024;-77
2022/09/24 07:25:39;;;;;;;5.07;2.78;;;;;;;;;;6363907;27;20019;-78
2022/09/24 07:28:39;;;;;;;4.03;3.10;;;;;;;;;;6348032;27;20027;-78
2022/09/24 07:31:40;;;;;;;2.77;2.50;;;;;;;;;;6363992;27;20049;-79
2022/09/24 07:34:40;;;;;;;3.23;3.00;;;;;;;;;;6345414;27;20023;-79
2022/09/24 07:37:40;;;;;;;4.33;2.37;;;;;;;;;;6348426;27;20015;-79
2022/09/24 07:40:41;;;;;;;4.60;4.07;;;;;;;;;;6345747;27;20034;-78
2022/09/24 07:43:43;;;;;;;1.40;1.20;;;;;;;;;;6365305;27;20429;-78
2022/09/24 07:46:43;;;;;;;;;;;;;;;;;;6368458;27;20455;-78
2022/09/24 07:49:43;;;;;;;1.13;1.13;;;;;;;;;;6346054;27;19907;-78
2022/09/24 07:52:48;;;;;;;2.80;1.87;;;;;;;;;;6367336;27;20019;-79
2022/09/24 07:55:48;;;;;;;3.22;2.08;;;;;;;;;;6345581;27;20072;-78
2022/09/24 07:58:50;;;;;;;17.33;1.53;;;;;;;;;;6366763;27;20015;-78
2022/09/24 08:01:50;;;;;;;3.15;1.65;;;;;;;;;;6344165;27;20432;-78
2022/09/24 08:04:50;;;;;;;1.40;1.37;;;;;;;;;;6344557;27;20027;-78
2022/09/24 08:07:51;;;;;;;2.53;2.23;;;;;;;;;;6346932;27;20015;-78
2022/09/24 08:10:52;;;;;;;3.70;2.95;;;;;;;;;;6361217;27;20023;-78
2022/09/24 08:13:53;;;;;;;6.43;3.37;;;;;;;;;;6341199;27;20027;-79
2022/09/24 08:16:54;;;;;;;1.25;1.17;;;;;;;;;;6369519;27;20546;-78
2022/09/24 08:19:55;;;;;;;2.47;2.27;;;;;;;;;;6362702;27;20200;-78
2022/09/24 08:22:59;;;;;;;4.47;3.28;;;;;;;;;;6334975;28;20020;-78
2022/09/24 08:26:00;;;;;;;3.08;2.75;;;;;;;;;;6342108;27;20508;-78
2022/09/24 08:29:00;;;;;;;4.30;2.97;;;;;;;;;;6343936;27;20022;-78
2022/09/24 08:32:00;;;;;;;3.80;3.50;;;;;;;;;;6350963;27;20098;-78
2022/09/24 08:35:00;;;;;;;8.70;3.97;;;;;;;;;;6345288;27;20020;-79
2022/09/24 08:38:02;;;;;;;1.80;1.70;;;;;;;;;;6356951;27;20050;-78
2022/09/24 08:41:08;;;;;;;1.70;1.60;;;;;;;;;;6339529;28;20012;-79
2022/09/24 08:44:11;;;;;;;2.92;2.03;;;;;;;;;;6345923;27;20363;-78
2022/09/24 08:47:30;;;;;;;4.00;2.58;;;;;;;;;;6341428;27;20102;-79
2022/09/24 08:50:33;;;;;;;3.22;1.95;;;;;;;;;;6338480;27;20054;-78
2022/09/24 08:53:33;;;;;;;1.52;1.52;;;;;;;;;;6340557;27;20027;-78
2022/09/24 08:56:35;;;;;;;1.88;1.77;;;;;;;;;;6345043;27;20027;-78
2022/09/24 08:59:36;;;;;;;6.82;1.45;;;;;;;;;;6349778;27;20027;-78
2022/09/24 09:02:50;;;;;;;1.13;1.13;;;;;;;;;;6362769;27;20083;-78
2022/09/24 09:05:57;;;;;;;1.35;1.35;;;;;;;;;;6353332;27;20520;-78
2022/09/24 09:09:00;;;;;;;1.35;0.90;;;;;;;;;;6337279;27;20027;-77
2022/09/24 09:12:02;;;;;;;1.08;1.08;;;;;;;;;;6358068;27;20027;-78
2022/09/24 09:15:10;;;;;;;2.90;2.08;;;;;;;;;;6361498;27;20042;-78
2022/09/24 09:18:36;;;;;;;1.40;1.30;;;;;;;;;;6331631;27;20019;-78
2022/09/24 09:21:41;;;;;;;2.85;2.65;;;;;;;;;;6354275;27;20033;-77
2022/09/24 09:24:48;;;;;;;2.03;1.90;;;;;;;;;;6334542;28;20079;-77
2022/09/24 09:27:50;;;;;;;5.63;3.15;;;;;;;;;;6350218;27;20064;-77
2022/09/24 09:30:50;;;;;;;;;;;;;;;;;;6350414;27;20019;-77
2022/09/24 09:34:05;;;;;;;0.68;0.68;;;;;;;;;;6349071;27;19915;-77
2022/09/24 09:37:13;;;;;;;1.08;1.08;;;;;;;;;;6340884;27;20475;-78
2022/09/24 09:40:22;;;;;;;1.20;0.93;;;;;;;;;;6359063;27;20497;-78
2022/09/24 09:43:23;;;;;;;1.48;0.98;;;;;;;;;;6343313;27;20023;-77
2022/09/24 09:46:26;;;;;;;0.60;0.60;;;;;;;;;;6343903;27;20058;-78
2022/09/24 09:49:30;;;;;;;1.05;1.05;;;;;;;;;;6345384;27;20068;-78
2022/09/24 09:52:35;;;;;;;0.95;0.95;;;;;;;;;;6365264;27;20035;-77
2022/09/24 09:55:36;;;;;;;2.10;1.55;;;;;;;;;;6333747;27;20015;-78
2022/09/24 09:58:38;;;;;;;1.13;1.13;;;;;;;;;;6340604;27;20085;-77
2022/09/24 10:01:40;;;;;;;0.65;0.65;;;;;;;;;;6350071;28;20561;-77
2022/09/24 10:04:41;;;;;;;0.60;0.60;;;;;;;;;;6365286;27;20082;-78
2022/09/24 10:07:44;;;;;;;0.43;0.43;;;;;;;;;;6345888;28;20015;-78
2022/09/24 10:10:54;;;;;;;3.83;3.45;;;;;;;;;;6344235;28;20466;-78
2022/09/24 10:14:01;;;;;;;1.35;1.25;;;;;;;;;;6346449;28;20498;-77
2022/09/24 10:17:04;;;;;;;1.95;0.90;;;;;;;;;;6347830;28;20016;-78
2022/09/24 10:20:13;;;;;;;0.57;0.57;;;;;;;;;;6339520;28;20457;-77
2022/09/24 10:23:19;;;;;;;0.75;0.75;;;;;;;;;;6354547;28;20064;-78
2022/09/24 10:26:20;;;;;;;0.35;0.35;;;;;;;;;;6359848;27;20015;-78
2022/09/24 10:32:39;;;;;;;2.08;1.17;;;;;;;;;;6363160;27;20023;-78
2022/09/24 10:35:39;;;;;;;0.47;0.47;;;;;;;;;;6335552;27;20042;-79
2022/09/24 10:38:40;;;;;;;0.60;0.60;;;;;;;;;;6355338;27;20004;-79
2022/09/24 10:41:50;;;;;;;2.50;2.00;;;;;;;;;;6358838;27;20072;-78
2022/09/24 10:44:52;;;;;;;1.17;1.07;;;;;;;;;;6340350;27;20494;-79
2022/09/24 10:48:00;;;;;;;0.85;0.75;;;;;;;;;;6367155;27;20023;-79
2022/09/24 10:51:18;;;;;;;1.95;1.80;;;;;;;;;;6355158;27;20054;-78
2022/09/24 10:54:21;;;;;;;1.80;1.15;;;;;;;;;;6348859;27;20505;-79
2022/09/24 10:57:23;;;;;;;3.20;2.75;;;;;;;;;;6364613;27;20049;-79
2022/09/24 11:00:27;;;;;;;3.15;2.25;;;;;;;;;;6363484;27;20053;-78
2022/09/24 11:03:49;;;;;;;1.75;1.25;;;;;;;;;;6354061;27;20056;-79
2022/09/24 11:06:49;;;;;;;;;;;;;;;;;;6350139;27;20451;-79
2022/09/24 11:09:57;;;;;;;0.90;0.90;;;;;;;;;;6367247;27;20252;-79
2022/09/24 11:13:06;;;;;;;0.57;0.40;;;;;;;;;;6348655;27;20023;-79
2022/09/24 11:16:26;;;;;;;2.15;1.95;;;;;;;;;;6353778;27;20018;-79
2022/09/24 11:19:33;;;;;;;3.40;1.13;;;;;;;;;;6350378;27;20019;-78
2022/09/24 11:22:39;;;;;;;1.13;1.10;;;;;;;;;;6367581;27;20030;-79
2022/09/24 11:25:49;;;;;;;3.55;3.25;;;;;;;;;;6365633;27;20329;-79
2022/09/24 11:28:52;;;;;;;1.17;1.08;;;;;;;;;;6347725;27;20027;-78
2022/09/24 11:32:16;;;;;;;0.82;0.70;;;;;;;;;;6342818;27;20030;-79
2022/09/24 11:35:21;;;;;;;0.25;0.25;;;;;;;;;;6367109;27;20487;-79
2022/09/24 11:38:44;;;;;;;1.20;1.10;;;;;;;;;;6358769;27;20012;-79
2022/09/24 11:41:54;;;;;;;0.47;0.47;;;;;;;;;;6362494;27;20022;-78
2022/09/24 11:44:57;;;;;;;0.15;0.15;;;;;;;;;;6351140;27;20023;-79
2022/09/24 11:48:22;;;;;;;1.35;1.23;;;;;;;;;;6348393;27;20391;-78
2022/09/24 11:51:29;;;;;;;1.08;1.08;;;;;;;;;;6345989;27;20127;-78
2022/09/24 11:54:38;;;;;;;5.97;3.00;;;;;;;;;;6351322;27;20050;-78
2022/09/24 11:57:41;;;;;;;1.02;0.70;;;;;;;;;;6366910;27;20051;-78
2022/09/24 12:01:05;;;;;;;0.10;0.10;;;;;;;;;;6367704;27;20102;-78
2022/09/24 12:04:13;;;;;;;0.20;0.20;;;;;;;;;;6365330;27;20201;-78
2022/09/24 12:07:33;;;;;;;1.23;1.13;;;;;;;;;;6345381;27;20102;-78
2022/09/24 12:10:33;;;;;;;0.35;0.35;;;;;;;;;;6342634;27;20031;-79
2022/09/24 12:13:40;;;;;;;0.17;0.17;;;;;;;;;;6346677;27;20481;-79
2022/09/24 12:16:43;;;;;;;0.25;0.25;;;;;;;;;;6345045;27;20023;-79
2022/09/24 12:20:00;;;;;;;0.95;0.95;;;;;;;;;;6361958;27;20019;-79
2022/09/24 12:23:03;;;;;;;0.52;0.47;;;;;;;;;;6369162;27;20023;-79
2022/09/24 12:26:04;;;;;;;0.50;0.50;;;;;;;;;;6333013;27;20023;-79
2022/09/24 12:32:54;;;;;;;5.28;1.27;;;;;;;;;;6366762;27;20455;-79
2022/09/24 12:36:04;;;;;;;2.47;0.95;;;;;;;;;;6345015;27;20450;-78
2022/09/24 12:39:06;;;;;;;0.38;0.38;;;;;;;;;;6360802;27;20481;-79
2022/09/24 12:42:08;;;;;;;1.40;1.40;;;;;;;;;;6339715;27;20026;-79
2022/09/24 12:45:13;;;;;;;2.42;2.08;;;;;;;;;;6356621;27;20511;-79
2022/09/24 12:48:15;;;;;;;0.10;0.10;;;;;;;;;;6344401;27;20134;-79
2022/09/24 12:51:21;;;;;;;0.52;0.52;;;;;;;;;;6341253;27;20403;-78
2022/09/24 12:54:32;;;;;;;0.55;0.47;;;;;;;;;;6364047;27;20022;-79
2022/09/24 12:57:38;;;;;;;0.52;0.52;;;;;;;;;;6362849;27;20026;-79
2022/09/24 13:00:40;;;;;;;2.03;1.77;;;;;;;;;;6362073;27;20375;-78
2022/09/24 13:03:40;;;;;;;;;;;;;;;;;;6362279;27;20054;-79
2022/09/24 13:06:42;;;;;;;0.90;0.90;;;;;;;;;;6363257;27;19913;-79
2022/09/24 13:09:43;;;;;;;4.40;0.63;;;;;;;;;;6334114;27;20042;-79
2022/09/24 13:12:43;;;;;;;0.30;0.30;;;;;;;;;;6362712;27;20123;-78
2022/09/24 13:15:44;;;;;;;1.10;0.67;;;;;;;;;;6358309;27;20015;-79
2022/09/24 13:18:58;;;;;;;0.67;0.67;;;;;;;;;;6331586;27;20019;-79
2022/09/24 13:21:59;;;;;;;0.52;0.52;;;;;;;;;;6361934;27;20053;-79
2022/09/24 13:25:08;;;;;;;0.30;0.30;;;;;;;;;;6357829;27;20027;-79
2022/09/24 13:28:24;;;;;;;0.32;0.32;;;;;;;;;;6338735;27;20055;-79
2022/09/24 13:31:24;;;;;;;0.95;0.85;;;;;;;;;;6346983;27;20023;-79
2022/09/24 13:34:28;;;;;;;0.22;0.22;;;;;;;;;;6335704;27;20025;-79
2022/09/24 13:37:38;;;;;;;0.73;0.73;;;;;;;;;;6359864;27;20471;-79
2022/09/24 13:40:42;;;;;;;0.28;0.28;;;;;;;;;;6342659;27;20039;-79
2022/09/24 13:43:55;;;;;;;2.08;0.98;;;;;;;;;;6366942;27;20578;-79
2022/09/24 13:47:15;;;;;;;0.38;0.38;;;;;;;;;;6361780;27;20046;-79
2022/09/24 13:50:18;;;;;;;0.40;0.40;;;;;;;;;;6361770;27;20039;-79
2022/09/24 13:53:19;;;;;;;1.80;0.38;;;;;;;;;;6365757;27;20103;-80
2022/09/24 13:56:20;;;;;;;2.08;0.52;;;;;;;;;;6367781;27;20348;-80
2022/09/24 13:59:20;;;;;;;0.73;0.73;;;;;;;;;;6368692;27;20030;-79
2022/09/24 14:02:24;;;;;;;0.40;0.40;;;;;;;;;;6343961;27;20075;-80
2022/09/24 14:05:25;;;;;;;0.82;0.82;;;;;;;;;;6365831;27;20035;-79
2022/09/24 14:08:26;;;;;;;0.57;0.57;;;;;;;;;;6344774;28;20064;-79
2022/09/24 14:11:26;;;;;;;0.35;0.35;;;;;;;;;;6364157;28;20065;-80
2022/09/24 14:14:27;;;;;;;0.70;0.70;;;;;;;;;;6365511;28;20020;-79
2022/09/24 14:17:28;;;;;;;5.45;0.75;;;;;;;;;;6365891;28;20026;-80
2022/09/24 14:20:30;;;;;;;1.40;0.63;;;;;;;;;;6367253;28;20016;-79
2022/09/24 14:23:35;;;;;;;0.30;0.30;;;;;;;;;;6366358;28;20019;-79
2022/09/24 14:26:36;;;;;;;0.40;0.40;;;;;;;;;;6340527;28;21622;-79
2022/09/24 14:29:37;;;;;;;0.40;0.40;;;;;;;;;;6354669;28;20030;-79
2022/09/24 14:32:39;;;;;;;0.70;0.70;;;;;;;;;;6367926;28;20356;-81
2022/09/24 14:35:43;;;;;;;1.88;1.38;;;;;;;;;;6346391;28;20425;-80
2022/09/24 14:38:47;;;;;;;0.25;0.25;;;;;;;;;;6343994;28;20022;-80
2022/09/24 14:41:47;;;;;;;0.68;0.68;;;;;;;;;;6364872;28;20103;-81
2022/09/24 14:44:48;;;;;;;1.93;1.83;;;;;;;;;;6345809;28;20035;-81
2022/09/24 14:48:18;;;;;;;1.52;1.13;;;;;;;;;;6340156;28;20038;-81
2022/09/24 14:51:21;;;;;;;0.38;0.38;;;;;;;;;;6315719;28;20049;-80
2022/09/24 14:54:27;;;;;;;1.48;1.40;;;;;;;;;;6362025;28;20084;-80
2022/09/24 14:57:34;;;;;;;1.75;1.05;;;;;;;;;;6339773;28;20015;-81
2022/09/24 15:00:48;;;;;;;0.30;0.30;;;;;;;;;;6336328;28;20016;-80
2022/09/24 15:03:49;;;;;;;0.90;0.77;;;;;;;;;;6355160;28;20035;-80
2022/09/24 15:06:50;;;;;;;1.80;1.70;;;;;;;;;;6340710;28;20019;-81
2022/09/24 15:09:51;;;;;;;2.10;1.70;;;;;;;;;;6343130;27;20023;-80
2022/09/24 15:12:51;;;;;;;1.17;1.08;;;;;;;;;;6347702;27;20031;-80
2022/09/24 15:16:01;;;;;;;1.07;1.07;;;;;;;;;;6346068;27;20023;-80
2022/09/24 15:19:13;;;;;;;2.30;2.10;;;;;;;;;;6340352;27;20023;-80
2022/09/24 15:22:14;;;;;;;1.58;1.48;;;;;;;;;;6349626;27;20030;-80
2022/09/24 15:25:14;;;;;;;2.80;0.87;;;;;;;;;;6369788;27;20024;-80
2022/09/24 15:28:15;;;;;;;2.97;1.33;;;;;;;;;;6350167;27;20352;-79
2022/09/24 15:31:15;;;;;;;1.77;1.67;;;;;;;;;;6365788;27;20053;-78
2022/09/24 15:34:15;;;;;;;1.10;1.10;;;;;;;;;;6341646;27;20102;-78
2022/09/24 15:37:19;;;;;;;4.17;1.00;;;;;;;;;;6344233;27;20012;-79
2022/09/24 15:40:21;;;;;;;0.82;0.77;;;;;;;;;;6344390;27;20018;-79
2022/09/24 15:43:23;;;;;;;0.82;0.82;;;;;;;;;;6336251;27;20023;-81
2022/09/24 15:46:24;;;;;;;0.68;0.68;;;;;;;;;;6350877;27;20015;-81
2022/09/24 15:49:25;;;;;;;2.13;1.15;;;;;;;;;;6350801;27;20057;-81
2022/09/24 15:52:26;;;;;;;5.68;2.55;;;;;;;;;;6346461;27;20036;-80
2022/09/24 15:55:26;;;;;;;0.60;0.60;;;;;;;;;;6363613;27;20023;-81
2022/09/24 15:58:26;;;;;;;7.80;3.03;;;;;;;;;;6350663;27;20029;-81
2022/09/24 16:01:27;;;;;;;3.03;1.33;;;;;;;;;;6348313;27;20030;-82
2022/09/24 16:04:27;;;;;;;1.57;1.47;;;;;;;;;;6348058;27;20020;-82
2022/09/24 16:07:27;;;;;;;1.50;1.40;;;;;;;;;;6345318;27;20012;-81
2022/09/24 16:10:28;;;;;;;0.63;0.63;;;;;;;;;;6347484;27;20015;-81
2022/09/24 16:13:28;;;;;;;1.57;0.90;;;;;;;;;;6341232;27;20505;-81
2022/09/24 16:16:28;;;;;;;0.77;0.77;;;;;;;;;;6345545;27;20444;-80
2022/09/24 16:19:29;;;;;;;0.27;0.27;;;;;;;;;;6346420;27;20528;-81
2022/09/24 16:22:29;;;;;;;1.10;1.03;;;;;;;;;;6353262;27;20019;-82
2022/09/24 16:25:29;;;;;;;2.07;1.90;;;;;;;;;;6344545;27;20015;-81
2022/09/24 16:28:30;;;;;;;0.20;0.20;;;;;;;;;;6349099;27;20015;-81
2022/09/24 16:31:30;;;;;;;2.30;2.10;;;;;;;;;;6348587;27;20015;-81
2022/09/24 16:34:31;;;;;;;2.10;1.23;;;;;;;;;;6366178;27;20016;-81
2022/09/24 16:37:31;;;;;;;1.42;1.33;;;;;;;;;;6349858;27;20019;-82
2022/09/24 16:40:32;;;;;;;3.83;3.17;;;;;;;;;;6348343;27;20007;-81
2022/09/24 16:43:32;;;;;;;0.97;0.97;;;;;;;;;;6365207;27;20659;-81
2022/09/24 16:46:33;;;;;;;0.30;0.30;;;;;;;;;;6345650;27;20375;-81
2022/09/24 16:49:33;;;;;;;1.57;1.20;;;;;;;;;;6346290;27;20050;-81
2022/09/24 16:52:33;;;;;;;0.60;0.60;;;;;;;;;;6347876;27;20077;-81
2022/09/24 16:55:34;;;;;;;4.93;0.93;;;;;;;;;;6352244;27;20455;-81
2022/09/24 16:58:34;;;;;;;1.67;1.37;;;;;;;;;;6350754;27;20011;-82
2022/09/24 17:01:35;;;;;;;0.80;0.80;;;;;;;;;;6340265;27;20111;-81
2022/09/24 17:04:35;;;;;;;0.93;0.93;;;;;;;;;;6337170;27;20058;-81
2022/09/24 17:07:35;;;;;;;0.77;0.53;;;;;;;;;;6343284;27;20667;-81
2022/09/24 17:10:35;;;;;;;0.37;0.37;;;;;;;;;;6354139;27;20012;-81
2022/09/24 17:13:36;;;;;;;0.43;0.43;;;;;;;;;;6346105;27;20023;-81
2022/09/24 17:16:36;;;;;;;1.47;1.37;;;;;;;;;;6346065;27;20117;-80
2022/09/24 17:19:37;;;;;;;0.60;0.60;;;;;;;;;;6348280;27;20531;-81
2022/09/24 17:22:37;;;;;;;0.77;0.77;;;;;;;;;;6353805;27;20035;-81
2022/09/24 17:25:38;;;;;;;1.07;1.03;;;;;;;;;;6346623;27;20023;-80
2022/09/24 17:28:39;;;;;;;0.47;0.47;;;;;;;;;;6368480;27;20034;-79
2022/09/24 17:31:39;;;;;;;1.77;1.48;;;;;;;;;;6347818;27;20023;-80
2022/09/24 17:34:39;;;;;;;0.73;0.73;;;;;;;;;;6353211;27;20014;-81
2022/09/24 17:37:40;;;;;;;0.30;0.30;;;;;;;;;;6348305;27;20347;-80
2022/09/24 17:40:40;;;;;;;0.50;0.50;;;;;;;;;;6348082;27;20102;-81
2022/09/24 17:43:40;;;;;;;3.65;2.53;;;;;;;;;;6373341;27;20439;-81
2022/09/24 17:46:40;;;;;;;12.83;2.17;;;;;;;;;;6349129;27;20015;-81
2022/09/24 17:49:41;;;;;;;2.00;1.50;;;;;;;;;;6345725;27;20475;-82
2022/09/24 17:52:41;;;;;;;3.47;3.20;;;;;;;;;;6369142;27;20045;-81
2022/09/24 17:55:51;;;;;;;0.25;0.25;;;;;;;;;;6377720;27;20054;-82
2022/09/24 17:58:53;;;;;;;1.10;1.00;;;;;;;;;;6373131;27;20027;-81
2022/09/24 18:01:53;;;;;;;6.88;2.35;;;;;;;;;;6378719;27;20030;-81
2022/09/24 18:04:53;;;;;;;1.60;1.50;;;;;;;;;;6345039;28;20027;-80
2022/09/24 18:07:54;;;;;;;6.73;3.17;;;;;;;;;;6353306;28;20048;-82
2022/09/24 18:11:07;;;;;;;1.50;1.40;;;;;;;;;;6376546;28;20075;-81
2022/09/24 18:14:10;;;;;;;2.70;1.58;;;;;;;;;;6359519;28;20046;-81
2022/09/24 18:17:11;;;;;;;0.80;0.75;;;;;;;;;;6374970;28;20264;-81
2022/09/24 18:20:11;;;;;;;3.67;3.37;;;;;;;;;;6373127;28;20027;-81
2022/09/24 18:23:12;;;;;;;2.63;2.47;;;;;;;;;;6355083;28;20121;-81
2022/09/24 18:26:16;;;;;;;2.87;2.67;;;;;;;;;;6356782;28;20014;-81
2022/09/24 18:29:18;;;;;;;5.25;2.83;;;;;;;;;;6355809;28;20019;-81
2022/09/24 18:32:18;;;;;;;1.27;1.17;;;;;;;;;;6379116;28;20072;-81
2022/09/24 18:35:18;;;;;;;1.70;1.63;;;;;;;;;;6371403;28;20521;-82